Time;durP1;ratioP1;P1;durP2;ratioP2;P2;SDS_P1;SDS_P2;PMS_P1;PMS_P2;Temp;Humidity;BMP_temperature;BMP_pressure;BME280_temperature;BME280_humidity;BME280_pressure;Samples;Min_cycle;Max_cycle;Signal;HPM_P1;HPM_P2
2021/08/29 00:01:41;;;;;;;10.75;2.42;;;;;;;;;;5002089;28;20054;-53
2021/08/29 00:04:09;;;;;;;12.40;2.78;;;;;;;;;;4987746;28;20046;-55
2021/08/29 00:06:35;;;;;;;11.40;2.37;;;;;;;;;;4998930;28;20046;-55
2021/08/29 00:09:04;;;;;;;6.00;2.50;;;;;;;;;;4985897;28;20049;-55
2021/08/29 00:11:30;;;;;;;;;;;;;;;;;;4970011;28;20046;-53
2021/08/29 00:13:57;;;;;;;9.70;2.17;;;;;;;;;;4983902;28;19922;-52
2021/08/29 00:16:23;;;;;;;12.32;2.65;;;;;;;;;;4980245;28;20039;-55
2021/08/29 00:18:50;;;;;;;9.05;2.40;;;;;;;;;;4984078;28;20042;-53
2021/08/29 00:21:18;;;;;;;8.10;2.47;;;;;;;;;;4980775;28;20043;-56
2021/08/29 00:23:44;;;;;;;9.98;2.20;;;;;;;;;;4967204;28;20042;-56
2021/08/29 00:26:11;;;;;;;12.60;2.38;;;;;;;;;;4972019;28;20030;-55
2021/08/29 00:28:37;;;;;;;6.65;2.05;;;;;;;;;;5004918;28;20030;-55
2021/08/29 00:31:04;;;;;;;9.93;2.53;;;;;;;;;;4983894;28;20126;-55
2021/08/29 00:33:30;;;;;;;12.18;3.60;;;;;;;;;;4988711;28;20128;-53
2021/08/29 00:35:57;;;;;;;12.13;3.25;;;;;;;;;;4996841;28;20043;-55
2021/08/29 00:38:26;;;;;;;9.88;2.80;;;;;;;;;;4973665;28;20038;-55
2021/08/29 00:40:52;;;;;;;;;;;;;;;;;;4999170;28;20053;-54
2021/08/29 00:43:18;;;;;;;9.93;2.40;;;;;;;;;;4982950;28;19941;-54
2021/08/29 00:45:45;;;;;;;10.07;2.15;;;;;;;;;;4967068;28;20051;-51
2021/08/29 00:48:12;;;;;;;11.63;2.78;;;;;;;;;;4982117;28;20038;-55
2021/08/29 00:50:40;;;;;;;11.45;2.20;;;;;;;;;;4966261;28;20054;-55
2021/08/29 00:53:07;;;;;;;7.78;2.15;;;;;;;;;;4978446;28;20058;-53
2021/08/29 00:55:35;;;;;;;10.38;2.67;;;;;;;;;;4982589;28;20141;-56
2021/08/29 00:58:02;;;;;;;7.18;2.20;;;;;;;;;;4973812;28;20050;-54
2021/08/29 01:00:28;;;;;;;7.88;1.98;;;;;;;;;;4982180;28;20136;-55
2021/08/29 01:02:55;;;;;;;8.65;2.25;;;;;;;;;;4999452;28;20042;-54
2021/08/29 01:05:29;;;;;;;9.70;2.58;;;;;;;;;;5003612;28;20042;-52
2021/08/29 01:08:09;;;;;;;9.88;2.53;;;;;;;;;;4990881;28;20046;-54
2021/08/29 01:10:41;;;;;;;6.13;2.20;;;;;;;;;;4985658;28;20039;-54
2021/08/29 01:13:09;;;;;;;9.57;2.13;;;;;;;;;;4972651;28;20141;-55
2021/08/29 01:15:35;;;;;;;9.70;2.58;;;;;;;;;;5001522;28;20077;-51
2021/08/29 01:18:03;;;;;;;9.25;2.60;;;;;;;;;;5000265;28;20119;-55
2021/08/29 01:20:31;;;;;;;9.32;2.22;;;;;;;;;;4986383;28;20049;-54
2021/08/29 01:22:59;;;;;;;13.50;2.47;;;;;;;;;;4993845;28;20034;-52
2021/08/29 01:25:27;;;;;;;7.55;2.10;;;;;;;;;;4983147;28;20047;-54
2021/08/29 01:28:00;;;;;;;10.70;2.20;;;;;;;;;;4964878;28;20046;-56
2021/08/29 01:30:28;;;;;;;11.35;2.53;;;;;;;;;;4982061;28;20050;-55
2021/08/29 01:32:55;;;;;;;14.57;2.53;;;;;;;;;;4981727;28;20051;-56
2021/08/29 01:35:22;;;;;;;8.50;2.20;;;;;;;;;;4982728;28;20054;-55
2021/08/29 01:37:52;;;;;;;9.43;2.22;;;;;;;;;;4984763;28;20052;-54
2021/08/29 01:40:19;;;;;;;8.68;2.53;;;;;;;;;;5001303;28;20052;-53
2021/08/29 01:42:46;;;;;;;11.48;2.45;;;;;;;;;;5000160;28;20038;-55
2021/08/29 01:45:13;;;;;;;7.93;2.15;;;;;;;;;;4984421;28;20058;-55
2021/08/29 01:47:41;;;;;;;15.40;2.78;;;;;;;;;;4985671;28;20050;-56
2021/08/29 01:50:08;;;;;;;10.82;2.30;;;;;;;;;;4997477;28;20057;-56
2021/08/29 01:52:35;;;;;;;7.88;2.47;;;;;;;;;;4985770;28;20120;-55
2021/08/29 01:55:01;;;;;;;7.38;2.28;;;;;;;;;;4985091;28;20046;-57
2021/08/29 01:57:27;;;;;;;13.75;2.95;;;;;;;;;;4983991;28;20034;-56
2021/08/29 01:59:55;;;;;;;8.75;2.42;;;;;;;;;;4962411;28;20137;-57
2021/08/29 02:02:21;;;;;;;9.30;2.55;;;;;;;;;;4967543;28;20062;-56
2021/08/29 02:04:49;;;;;;;7.70;2.13;;;;;;;;;;4966938;28;20038;-56
2021/08/29 02:07:20;;;;;;;11.68;2.65;;;;;;;;;;4962169;28;20031;-55
2021/08/29 02:09:49;;;;;;;13.65;2.60;;;;;;;;;;4960913;28;20079;-51
2021/08/29 02:12:17;;;;;;;11.10;2.63;;;;;;;;;;4961780;28;20045;-56
2021/08/29 02:14:45;;;;;;;12.75;2.92;;;;;;;;;;4959820;28;20043;-53
2021/08/29 02:17:13;;;;;;;5.78;1.95;;;;;;;;;;4979334;28;20046;-54
2021/08/29 02:19:40;;;;;;;9.18;2.28;;;;;;;;;;4960867;28;20105;-55
2021/08/29 02:22:08;;;;;;;10.10;2.40;;;;;;;;;;4965212;28;20137;-55
2021/08/29 02:24:35;;;;;;;8.23;2.08;;;;;;;;;;4979506;28;20043;-56
2021/08/29 02:27:02;;;;;;;12.77;2.40;;;;;;;;;;4978457;28;20137;-56
2021/08/29 02:29:29;;;;;;;6.72;2.22;;;;;;;;;;4964140;28;20035;-52
2021/08/29 02:31:56;;;;;;;9.70;2.28;;;;;;;;;;4993887;28;20030;-55
2021/08/29 02:34:24;;;;;;;9.23;2.30;;;;;;;;;;4983711;28;20043;-55
2021/08/29 02:36:51;;;;;;;8.20;2.63;;;;;;;;;;4966757;28;20063;-53
2021/08/29 02:39:25;;;;;;;6.57;2.08;;;;;;;;;;4983034;28;20043;-47
2021/08/29 02:41:52;;;;;;;13.27;2.72;;;;;;;;;;4973876;28;20127;-51
2021/08/29 02:44:19;;;;;;;10.70;2.42;;;;;;;;;;4983260;28;20050;-52
2021/08/29 02:46:46;;;;;;;8.23;2.53;;;;;;;;;;4994382;28;20042;-53
2021/08/29 02:49:13;;;;;;;9.68;2.25;;;;;;;;;;4982821;28;20133;-53
2021/08/29 02:51:40;;;;;;;11.05;2.80;;;;;;;;;;4986507;28;20130;-55
2021/08/29 02:54:06;;;;;;;10.73;2.40;;;;;;;;;;4962283;28;20049;-53
2021/08/29 02:56:35;;;;;;;8.52;2.28;;;;;;;;;;4960902;28;20050;-56
2021/08/29 02:59:01;;;;;;;;;;;;;;;;;;4962058;28;20161;-52
2021/08/29 03:01:53;;;;;;;7.53;2.13;;;;;;;;;;5019943;23;19934;-57
2021/08/29 03:04:19;;;;;;;9.52;2.40;;;;;;;;;;4978372;28;20038;-55
2021/08/29 03:06:46;;;;;;;7.47;2.45;;;;;;;;;;4977389;28;20042;-54
2021/08/29 03:09:15;;;;;;;8.85;2.30;;;;;;;;;;4983904;28;20046;-57
2021/08/29 03:11:43;;;;;;;9.63;2.15;;;;;;;;;;4984923;28;20062;-55
2021/08/29 03:14:10;;;;;;;8.75;2.08;;;;;;;;;;4977840;28;20034;-48
2021/08/29 03:16:36;;;;;;;8.85;2.60;;;;;;;;;;4984768;28;20041;-56
2021/08/29 03:19:24;;;;;;;5.70;2.10;;;;;;;;;;4976446;28;20073;-56
2021/08/29 03:21:51;;;;;;;11.13;2.43;;;;;;;;;;4927530;29;20055;-56
2021/08/29 03:24:18;;;;;;;9.65;2.83;;;;;;;;;;4969943;28;20189;-56
2021/08/29 03:26:46;;;;;;;9.30;2.53;;;;;;;;;;4984504;28;20140;-56
2021/08/29 03:29:13;;;;;;;11.00;2.50;;;;;;;;;;4982791;28;20063;-53
2021/08/29 03:31:40;;;;;;;8.75;2.58;;;;;;;;;;4981389;28;20124;-54
2021/08/29 03:34:07;;;;;;;7.55;2.60;;;;;;;;;;4985011;28;20053;-56
2021/08/29 03:36:34;;;;;;;10.10;2.55;;;;;;;;;;4974690;28;20070;-55
2021/08/29 03:39:06;;;;;;;8.80;2.50;;;;;;;;;;5002111;28;20053;-53
2021/08/29 03:41:33;;;;;;;9.40;2.22;;;;;;;;;;4974823;28;20051;-57
2021/08/29 03:44:01;;;;;;;10.00;2.00;;;;;;;;;;4984463;28;20042;-57
2021/08/29 03:46:28;;;;;;;14.43;2.33;;;;;;;;;;4995281;28;20058;-51
2021/08/29 03:49:03;;;;;;;9.15;2.20;;;;;;;;;;4982548;28;20120;-52
2021/08/29 03:51:30;;;;;;;6.70;2.30;;;;;;;;;;4982488;28;20038;-54
2021/08/29 03:53:56;;;;;;;8.80;2.50;;;;;;;;;;4994553;28;20097;-53
2021/08/29 03:56:23;;;;;;;11.15;2.30;;;;;;;;;;4985301;28;20034;-54
2021/08/29 03:59:12;;;;;;;8.07;2.20;;;;;;;;;;4976805;28;20054;-51
2021/08/29 04:01:40;;;;;;;6.63;2.25;;;;;;;;;;4971542;28;20042;-53
2021/08/29 04:04:06;;;;;;;7.45;2.33;;;;;;;;;;4989991;28;20053;-54
2021/08/29 04:06:33;;;;;;;7.07;2.10;;;;;;;;;;4987013;28;20053;-52
2021/08/29 04:09:10;;;;;;;7.90;2.20;;;;;;;;;;4982793;28;20050;-53
2021/08/29 04:11:39;;;;;;;9.30;2.10;;;;;;;;;;4986377;28;20100;-50
2021/08/29 04:14:05;;;;;;;7.97;2.42;;;;;;;;;;4985961;28;20049;-52
2021/08/29 04:16:34;;;;;;;8.00;2.25;;;;;;;;;;4985374;28;20038;-53
2021/08/29 04:19:03;;;;;;;11.45;2.63;;;;;;;;;;4989167;28;20035;-54
2021/08/29 04:21:29;;;;;;;5.93;1.83;;;;;;;;;;4982832;28;20048;-54
2021/08/29 04:23:56;;;;;;;11.15;2.50;;;;;;;;;;4985658;28;20026;-53
2021/08/29 04:26:23;;;;;;;7.32;2.17;;;;;;;;;;4980060;28;20046;-53
2021/08/29 04:28:51;;;;;;;10.15;2.10;;;;;;;;;;4987240;28;20120;-54
2021/08/29 04:31:23;;;;;;;13.00;2.30;;;;;;;;;;4977773;28;20031;-54
2021/08/29 04:33:49;;;;;;;10.13;2.30;;;;;;;;;;4975021;28;20316;-56
2021/08/29 04:36:17;;;;;;;9.80;2.20;;;;;;;;;;4973132;28;20035;-52
2021/08/29 04:38:49;;;;;;;7.43;2.13;;;;;;;;;;4970804;28;20039;-53
2021/08/29 04:41:16;;;;;;;7.45;2.13;;;;;;;;;;4971607;28;20034;-53
2021/08/29 04:43:44;;;;;;;13.43;2.13;;;;;;;;;;5004847;28;20035;-51
2021/08/29 04:46:14;;;;;;;9.50;2.08;;;;;;;;;;4987143;28;20068;-54
2021/08/29 04:48:41;;;;;;;6.82;2.15;;;;;;;;;;4990978;28;20030;-54
2021/08/29 04:51:08;;;;;;;9.93;2.10;;;;;;;;;;4988418;28;20030;-50
2021/08/29 04:53:36;;;;;;;7.55;2.20;;;;;;;;;;5010728;28;20041;-54
2021/08/29 04:56:02;;;;;;;6.63;1.70;;;;;;;;;;4990880;28;20038;-52
2021/08/29 04:58:34;;;;;;;10.15;2.05;;;;;;;;;;4989432;28;20053;-53
2021/08/29 05:01:01;;;;;;;6.97;1.90;;;;;;;;;;4990477;28;20045;-51
2021/08/29 05:03:27;;;;;;;8.20;2.28;;;;;;;;;;4966872;28;20043;-51
2021/08/29 05:05:54;;;;;;;8.70;2.58;;;;;;;;;;4970221;28;20054;-53
2021/08/29 05:08:46;;;;;;;9.65;1.92;;;;;;;;;;4967047;28;20061;-52
2021/08/29 05:11:14;;;;;;;7.65;1.88;;;;;;;;;;4907104;28;20051;-52
2021/08/29 05:13:40;;;;;;;10.07;2.00;;;;;;;;;;4999934;28;20041;-53
2021/08/29 05:16:07;;;;;;;8.27;2.10;;;;;;;;;;5008378;28;20349;-52
2021/08/29 05:18:40;;;;;;;10.05;2.00;;;;;;;;;;4991885;28;20115;-53
2021/08/29 05:21:06;;;;;;;6.53;1.65;;;;;;;;;;4990710;28;20129;-52
2021/08/29 05:23:35;;;;;;;9.88;1.90;;;;;;;;;;4997632;28;20048;-53
2021/08/29 05:26:01;;;;;;;;;;;;;;;;;;5008058;28;20030;-53
2021/08/29 05:28:30;;;;;;;11.00;2.22;;;;;;;;;;4994261;28;19921;-53
2021/08/29 05:30:57;;;;;;;12.77;2.05;;;;;;;;;;5007008;28;20042;-54
2021/08/29 05:33:23;;;;;;;13.35;1.88;;;;;;;;;;4993119;28;20049;-53
2021/08/29 05:35:50;;;;;;;9.30;2.15;;;;;;;;;;5007938;28;20041;-54
2021/08/29 05:38:17;;;;;;;7.07;1.83;;;;;;;;;;4994358;28;20054;-54
2021/08/29 05:40:43;;;;;;;9.88;1.88;;;;;;;;;;4969320;28;20050;-53
2021/08/29 05:43:10;;;;;;;10.88;2.30;;;;;;;;;;4976033;28;20035;-51
2021/08/29 05:45:38;;;;;;;15.60;2.05;;;;;;;;;;4989214;28;20075;-50
2021/08/29 05:48:12;;;;;;;17.00;2.03;;;;;;;;;;5004774;28;20101;-52
2021/08/29 05:50:38;;;;;;;14.15;2.35;;;;;;;;;;4969033;28;20355;-53
2021/08/29 05:53:05;;;;;;;14.05;2.28;;;;;;;;;;4970480;28;20058;-56
2021/08/29 05:55:31;;;;;;;8.43;1.80;;;;;;;;;;4984932;28;20128;-52
2021/08/29 05:57:58;;;;;;;10.70;2.10;;;;;;;;;;4990954;28;20034;-53
2021/08/29 06:00:25;;;;;;;10.05;1.80;;;;;;;;;;4971245;28;20034;-54
2021/08/29 06:02:53;;;;;;;6.40;1.85;;;;;;;;;;4964677;28;20048;-53
2021/08/29 06:05:19;;;;;;;6.20;2.00;;;;;;;;;;4975514;28;20035;-51
2021/08/29 06:07:46;;;;;;;13.85;2.25;;;;;;;;;;4989925;28;20034;-54
2021/08/29 06:10:12;;;;;;;14.27;2.20;;;;;;;;;;4979988;28;20041;-50
2021/08/29 06:12:39;;;;;;;9.15;1.85;;;;;;;;;;4987928;28;20039;-50
2021/08/29 06:15:06;;;;;;;11.30;2.20;;;;;;;;;;4974113;28;20075;-50
2021/08/29 06:17:32;;;;;;;9.50;2.38;;;;;;;;;;4967368;28;20047;-54
2021/08/29 06:20:00;;;;;;;15.32;2.03;;;;;;;;;;4970838;28;20035;-52
2021/08/29 06:22:27;;;;;;;6.32;1.50;;;;;;;;;;4984381;28;20050;-52
2021/08/29 06:24:53;;;;;;;7.72;1.90;;;;;;;;;;4980442;28;20046;-53
2021/08/29 06:27:20;;;;;;;8.80;1.90;;;;;;;;;;4985156;28;20038;-51
2021/08/29 06:29:50;;;;;;;16.67;2.10;;;;;;;;;;4982364;28;20038;-51
2021/08/29 06:32:16;;;;;;;15.20;2.03;;;;;;;;;;4965640;28;20035;-51
2021/08/29 06:34:43;;;;;;;10.77;1.77;;;;;;;;;;4965472;28;20043;-51
2021/08/29 06:37:10;;;;;;;6.82;2.05;;;;;;;;;;4975183;28;20106;-52
2021/08/29 06:39:37;;;;;;;7.68;2.05;;;;;;;;;;4965855;28;20047;-53
2021/08/29 06:42:04;;;;;;;11.73;2.20;;;;;;;;;;4963013;28;20038;-53
2021/08/29 06:44:31;;;;;;;13.95;2.33;;;;;;;;;;4966605;28;20075;-53
2021/08/29 06:46:57;;;;;;;7.82;2.40;;;;;;;;;;4962265;28;20043;-53
2021/08/29 06:49:24;;;;;;;8.00;2.92;;;;;;;;;;4965624;28;20031;-52
2021/08/29 06:51:51;;;;;;;9.77;1.98;;;;;;;;;;4945244;28;20054;-51
2021/08/29 06:54:19;;;;;;;18.52;2.28;;;;;;;;;;4966517;28;20047;-54
2021/08/29 06:56:45;;;;;;;13.83;2.20;;;;;;;;;;4973415;28;20094;-52
2021/08/29 06:59:12;;;;;;;7.72;1.88;;;;;;;;;;4982127;28;20277;-49
2021/08/29 07:01:39;;;;;;;12.13;2.00;;;;;;;;;;4978489;28;20082;-52
2021/08/29 07:04:05;;;;;;;10.35;1.90;;;;;;;;;;4969006;28;20059;-54
2021/08/29 07:06:33;;;;;;;7.88;1.85;;;;;;;;;;4968747;28;20094;-49
2021/08/29 07:09:03;;;;;;;9.88;1.98;;;;;;;;;;5006930;28;20081;-53
2021/08/29 07:11:30;;;;;;;9.65;1.77;;;;;;;;;;4982736;28;20062;-53
2021/08/29 07:13:57;;;;;;;8.10;2.00;;;;;;;;;;4988076;28;20124;-52
2021/08/29 07:16:23;;;;;;;5.05;1.60;;;;;;;;;;4988121;28;20280;-53
2021/08/29 07:18:51;;;;;;;14.05;2.03;;;;;;;;;;5002199;28;20052;-51
2021/08/29 07:21:18;;;;;;;10.10;1.52;;;;;;;;;;5007100;28;20120;-49
2021/08/29 07:23:44;;;;;;;9.68;1.55;;;;;;;;;;5005052;28;20057;-53
2021/08/29 07:26:14;;;;;;;11.25;2.05;;;;;;;;;;4986386;28;20038;-53
2021/08/29 07:28:42;;;;;;;16.95;3.03;;;;;;;;;;5001593;28;20034;-54
2021/08/29 07:31:09;;;;;;;8.55;2.10;;;;;;;;;;4983927;28;20046;-54
2021/08/29 07:33:35;;;;;;;12.20;1.95;;;;;;;;;;4975748;28;20046;-51
2021/08/29 07:36:01;;;;;;;14.35;2.08;;;;;;;;;;4980736;28;20054;-53
2021/08/29 07:38:28;;;;;;;8.43;2.05;;;;;;;;;;4961229;28;20050;-52
2021/08/29 07:40:55;;;;;;;11.07;2.00;;;;;;;;;;4986916;28;20049;-50
2021/08/29 07:43:21;;;;;;;7.97;2.08;;;;;;;;;;4987447;28;20053;-51
2021/08/29 07:45:50;;;;;;;15.80;2.28;;;;;;;;;;5003352;28;20057;-55
2021/08/29 07:48:16;;;;;;;13.32;1.85;;;;;;;;;;4999509;28;20058;-51
2021/08/29 07:50:43;;;;;;;7.68;1.65;;;;;;;;;;4980162;28;20042;-53
2021/08/29 07:53:09;;;;;;;10.02;1.77;;;;;;;;;;4977689;28;20066;-54
2021/08/29 07:55:36;;;;;;;10.02;1.80;;;;;;;;;;4999985;28;20058;-54
2021/08/29 07:58:04;;;;;;;12.52;1.90;;;;;;;;;;4965015;28;20030;-51
2021/08/29 08:00:35;;;;;;;10.40;1.90;;;;;;;;;;4983420;28;20050;-51
2021/08/29 08:03:03;;;;;;;18.20;1.98;;;;;;;;;;4981270;28;20045;-52
2021/08/29 08:05:29;;;;;;;7.90;2.30;;;;;;;;;;4980585;28;20045;-52
2021/08/29 08:07:56;;;;;;;7.53;1.58;;;;;;;;;;4977371;28;20112;-53
2021/08/29 08:10:23;;;;;;;13.13;2.05;;;;;;;;;;4985582;28;20042;-51
2021/08/29 08:12:53;;;;;;;12.02;2.00;;;;;;;;;;4983323;28;20046;-50
2021/08/29 08:15:19;;;;;;;6.78;1.58;;;;;;;;;;4983241;28;20066;-54
2021/08/29 08:17:46;;;;;;;11.23;1.92;;;;;;;;;;5003343;28;20053;-54
2021/08/29 08:20:14;;;;;;;5.97;1.88;;;;;;;;;;4977230;28;20141;-50
2021/08/29 08:22:41;;;;;;;9.95;1.80;;;;;;;;;;4984906;28;20065;-52
2021/08/29 08:25:08;;;;;;;11.35;2.00;;;;;;;;;;4977805;28;20138;-49
2021/08/29 08:27:34;;;;;;;8.93;1.95;;;;;;;;;;4984026;28;20053;-52
2021/08/29 08:30:01;;;;;;;11.75;2.60;;;;;;;;;;4981689;28;20046;-51
2021/08/29 08:32:28;;;;;;;9.77;1.63;;;;;;;;;;4999429;28;20046;-52
2021/08/29 08:34:55;;;;;;;11.68;1.92;;;;;;;;;;4980741;28;20046;-53
2021/08/29 08:37:23;;;;;;;12.70;1.80;;;;;;;;;;4982470;28;20056;-52
2021/08/29 08:39:50;;;;;;;7.75;1.77;;;;;;;;;;4984520;28;20034;-52
2021/08/29 08:42:16;;;;;;;7.70;2.22;;;;;;;;;;4982109;28;20050;-54
2021/08/29 08:44:44;;;;;;;8.65;1.52;;;;;;;;;;4985330;28;20042;-52
2021/08/29 08:47:12;;;;;;;8.55;1.90;;;;;;;;;;4977179;28;20046;-54
2021/08/29 08:49:41;;;;;;;8.65;2.05;;;;;;;;;;4982929;28;20086;-54
2021/08/29 08:52:10;;;;;;;10.02;1.73;;;;;;;;;;4989242;28;20359;-52
2021/08/29 08:54:39;;;;;;;4.55;1.48;;;;;;;;;;4985041;28;20059;-52
2021/08/29 08:57:06;;;;;;;7.15;1.48;;;;;;;;;;4984609;28;20050;-51
2021/08/29 08:59:40;;;;;;;12.70;2.08;;;;;;;;;;4986220;28;20054;-52
2021/08/29 09:02:07;;;;;;;12.38;1.90;;;;;;;;;;4983971;28;20136;-54
2021/08/29 09:04:33;;;;;;;7.05;1.38;;;;;;;;;;4977789;28;20038;-53
2021/08/29 09:07:00;;;;;;;7.47;2.05;;;;;;;;;;4979248;28;20034;-51
2021/08/29 09:09:27;;;;;;;5.55;1.77;;;;;;;;;;4979906;28;20120;-52
2021/08/29 09:11:55;;;;;;;13.10;1.90;;;;;;;;;;4980516;28;20055;-51
2021/08/29 09:14:22;;;;;;;9.02;1.73;;;;;;;;;;4984000;28;20035;-54
2021/08/29 09:16:50;;;;;;;9.43;1.90;;;;;;;;;;4975936;28;20035;-51
2021/08/29 09:19:36;;;;;;;7.80;1.88;;;;;;;;;;4994077;28;20034;-50
2021/08/29 09:22:02;;;;;;;7.03;1.83;;;;;;;;;;4917188;29;20044;-53
2021/08/29 09:24:29;;;;;;;10.27;2.22;;;;;;;;;;4970661;28;20045;-52
2021/08/29 09:27:00;;;;;;;7.80;1.42;;;;;;;;;;4976282;28;20054;-53
2021/08/29 09:29:31;;;;;;;8.18;1.67;;;;;;;;;;4983932;28;20042;-54
2021/08/29 09:31:58;;;;;;;12.98;2.22;;;;;;;;;;4979762;28;20034;-52
2021/08/29 09:34:24;;;;;;;6.88;1.65;;;;;;;;;;4981719;28;20041;-54
2021/08/29 09:37:00;;;;;;;8.25;1.92;;;;;;;;;;4962710;28;20125;-52
2021/08/29 09:39:30;;;;;;;10.07;2.17;;;;;;;;;;4978786;28;20071;-54
2021/08/29 09:42:03;;;;;;;10.68;1.70;;;;;;;;;;4980831;28;20189;-53
2021/08/29 09:44:32;;;;;;;12.63;2.10;;;;;;;;;;4975762;28;20178;-52
2021/08/29 09:47:00;;;;;;;8.32;1.85;;;;;;;;;;4981123;28;20057;-53
2021/08/29 09:49:32;;;;;;;12.13;1.98;;;;;;;;;;4977308;28;20105;-50
2021/08/29 09:51:59;;;;;;;9.52;1.60;;;;;;;;;;4982830;28;20034;-53
2021/08/29 09:54:27;;;;;;;9.90;1.77;;;;;;;;;;4977273;28;20046;-50
2021/08/29 09:56:53;;;;;;;11.52;1.63;;;;;;;;;;4979118;28;20078;-49
2021/08/29 09:59:42;;;;;;;13.32;1.90;;;;;;;;;;4973059;28;20050;-49
2021/08/29 10:02:12;;;;;;;11.48;1.77;;;;;;;;;;4977129;28;20049;-53
2021/08/29 10:04:38;;;;;;;5.00;1.45;;;;;;;;;;4976930;28;20079;-55
2021/08/29 10:07:12;;;;;;;8.30;2.00;;;;;;;;;;4979960;28;20110;-54
2021/08/29 10:09:40;;;;;;;8.05;1.55;;;;;;;;;;4979997;28;20058;-51
2021/08/29 10:12:08;;;;;;;10.57;1.80;;;;;;;;;;4974788;28;20173;-52
2021/08/29 10:14:36;;;;;;;8.35;1.88;;;;;;;;;;4975894;28;20052;-51
2021/08/29 10:17:03;;;;;;;16.30;1.88;;;;;;;;;;4979645;28;20039;-53
2021/08/29 10:19:33;;;;;;;12.95;2.03;;;;;;;;;;4976838;28;20178;-52
2021/08/29 10:22:00;;;;;;;13.57;2.53;;;;;;;;;;4982429;28;20054;-55
2021/08/29 10:24:30;;;;;;;7.30;1.67;;;;;;;;;;4974028;28;20038;-54
2021/08/29 10:26:57;;;;;;;9.30;1.75;;;;;;;;;;4983183;28;20061;-53
2021/08/29 10:29:37;;;;;;;12.05;1.50;;;;;;;;;;4972493;28;20066;-54
2021/08/29 10:32:07;;;;;;;5.78;1.60;;;;;;;;;;4981385;28;20027;-50
2021/08/29 10:34:35;;;;;;;8.85;1.60;;;;;;;;;;4976125;28;20067;-56
2021/08/29 10:37:02;;;;;;;7.43;1.63;;;;;;;;;;4979142;28;20035;-53
2021/08/29 10:39:29;;;;;;;8.40;1.77;;;;;;;;;;4976506;28;20039;-51
2021/08/29 10:41:55;;;;;;;11.32;1.52;;;;;;;;;;4982536;28;20043;-50
2021/08/29 10:44:23;;;;;;;5.55;1.40;;;;;;;;;;4979931;28;20035;-52
2021/08/29 10:46:49;;;;;;;9.10;1.80;;;;;;;;;;4979012;28;20043;-52
2021/08/29 10:49:28;;;;;;;6.60;1.65;;;;;;;;;;4983502;28;20070;-52
2021/08/29 10:51:57;;;;;;;8.93;1.67;;;;;;;;;;4982445;28;20042;-53
2021/08/29 10:54:24;;;;;;;7.65;1.90;;;;;;;;;;4982838;28;20051;-55
2021/08/29 10:56:50;;;;;;;8.38;1.45;;;;;;;;;;4977286;28;20034;-54
2021/08/29 10:59:31;;;;;;;5.63;1.33;;;;;;;;;;4981788;28;20125;-53
2021/08/29 11:02:11;;;;;;;8.52;1.67;;;;;;;;;;4977564;28;20120;-52
2021/08/29 11:04:44;;;;;;;7.13;1.85;;;;;;;;;;4997722;28;20066;-50
2021/08/29 11:07:12;;;;;;;9.63;1.80;;;;;;;;;;4981693;28;20058;-53
2021/08/29 11:09:53;;;;;;;12.10;2.08;;;;;;;;;;4986514;28;20135;-54
2021/08/29 11:12:32;;;;;;;10.10;2.22;;;;;;;;;;4981980;28;20046;-51
2021/08/29 11:15:00;;;;;;;11.25;1.83;;;;;;;;;;4985450;28;20116;-53
2021/08/29 11:17:27;;;;;;;8.23;2.10;;;;;;;;;;4977141;28;20121;-52
2021/08/29 11:19:55;;;;;;;6.97;1.60;;;;;;;;;;4991357;28;20034;-54
2021/08/29 11:22:24;;;;;;;5.55;1.48;;;;;;;;;;4980459;28;20034;-50
2021/08/29 11:24:56;;;;;;;6.20;1.60;;;;;;;;;;4983216;28;20042;-53
2021/08/29 11:27:43;;;;;;;7.85;1.35;;;;;;;;;;4988359;28;20086;-50
2021/08/29 11:30:12;;;;;;;6.77;1.60;;;;;;;;;;4982384;28;20057;-51
2021/08/29 11:32:43;;;;;;;6.93;1.58;;;;;;;;;;4979851;28;20038;-53
2021/08/29 11:35:10;;;;;;;6.53;1.35;;;;;;;;;;4981146;28;20042;-54
2021/08/29 11:37:38;;;;;;;6.82;1.48;;;;;;;;;;4983409;28;20047;-53
2021/08/29 11:40:07;;;;;;;9.32;2.22;;;;;;;;;;4990424;28;20038;-52
2021/08/29 11:42:34;;;;;;;7.85;1.85;;;;;;;;;;4987874;28;20177;-53
2021/08/29 11:45:01;;;;;;;10.00;1.63;;;;;;;;;;4991928;28;20070;-53
2021/08/29 11:47:37;;;;;;;4.15;1.30;;;;;;;;;;4989890;28;20873;-56
2021/08/29 11:50:04;;;;;;;13.95;1.70;;;;;;;;;;4987229;28;20062;-51
2021/08/29 11:52:31;;;;;;;8.20;1.58;;;;;;;;;;4986155;28;20046;-52
2021/08/29 11:55:06;;;;;;;6.55;1.48;;;;;;;;;;4997781;28;20043;-51
2021/08/29 11:57:45;;;;;;;9.07;1.88;;;;;;;;;;4987016;28;20129;-50
2021/08/29 12:00:12;;;;;;;12.18;2.03;;;;;;;;;;4988348;28;20070;-50
2021/08/29 12:02:41;;;;;;;9.30;1.55;;;;;;;;;;5005515;28;20132;-52
2021/08/29 12:05:08;;;;;;;5.82;1.48;;;;;;;;;;4970455;28;20046;-54
2021/08/29 12:07:37;;;;;;;6.70;1.42;;;;;;;;;;4970424;28;20030;-54
2021/08/29 12:10:04;;;;;;;7.22;1.45;;;;;;;;;;4968743;28;20054;-52
2021/08/29 12:12:32;;;;;;;9.10;1.38;;;;;;;;;;4989510;28;20039;-55
2021/08/29 12:14:59;;;;;;;5.15;1.50;;;;;;;;;;4969656;28;20053;-54
2021/08/29 12:17:28;;;;;;;6.78;1.55;;;;;;;;;;4973782;28;20109;-54
2021/08/29 12:19:55;;;;;;;4.15;1.40;;;;;;;;;;4969632;28;20043;-54
2021/08/29 12:22:22;;;;;;;6.53;1.38;;;;;;;;;;4992292;28;20046;-54
2021/08/29 12:24:49;;;;;;;6.47;1.60;;;;;;;;;;4971657;28;20046;-56
2021/08/29 12:27:17;;;;;;;10.10;1.88;;;;;;;;;;4980452;28;20055;-54
2021/08/29 12:29:47;;;;;;;6.25;1.67;;;;;;;;;;4976095;28;20047;-56
2021/08/29 12:32:16;;;;;;;5.22;1.85;;;;;;;;;;4973919;28;20055;-54
2021/08/29 12:34:43;;;;;;;5.05;1.85;;;;;;;;;;4973530;28;20054;-54
2021/08/29 12:37:11;;;;;;;4.88;1.83;;;;;;;;;;4990197;28;20054;-57
2021/08/29 12:39:38;;;;;;;;;;;;;;;;;;4984357;28;20052;-54
2021/08/29 12:42:17;;;;;;;8.18;1.80;;;;;;;;;;4990444;28;19930;-56
2021/08/29 12:44:43;;;;;;;5.85;2.22;;;;;;;;;;4971311;28;20058;-55
2021/08/29 12:47:09;;;;;;;6.85;2.17;;;;;;;;;;4974191;28;20042;-54
2021/08/29 12:50:10;;;;;;;9.60;2.53;;;;;;;;;;4983575;28;20045;-54
2021/08/29 12:52:41;;;;;;;7.60;2.20;;;;;;;;;;4909413;29;20060;-53
2021/08/29 12:55:11;;;;;;;8.23;2.42;;;;;;;;;;4955410;28;20042;-56
2021/08/29 12:57:41;;;;;;;7.88;2.38;;;;;;;;;;4969038;28;20213;-53
2021/08/29 13:00:08;;;;;;;8.43;2.53;;;;;;;;;;4966822;28;20027;-56
2021/08/29 13:02:38;;;;;;;11.32;2.33;;;;;;;;;;4989625;28;20035;-51
2021/08/29 13:05:05;;;;;;;8.32;2.20;;;;;;;;;;4996928;28;20087;-53
2021/08/29 13:07:46;;;;;;;6.57;2.40;;;;;;;;;;4968978;28;20046;-55
2021/08/29 13:10:14;;;;;;;10.45;2.53;;;;;;;;;;4970659;28;20131;-52
2021/08/29 13:12:41;;;;;;;10.75;2.95;;;;;;;;;;4985134;28;20034;-53
2021/08/29 13:15:08;;;;;;;5.70;2.08;;;;;;;;;;4990639;28;20026;-55
2021/08/29 13:17:45;;;;;;;7.55;2.20;;;;;;;;;;5001648;28;20038;-54
2021/08/29 13:20:12;;;;;;;8.23;1.97;;;;;;;;;;5007622;28;20073;-55
2021/08/29 13:22:39;;;;;;;5.30;2.13;;;;;;;;;;4990389;28;20049;-55
2021/08/29 13:25:21;;;;;;;7.05;2.25;;;;;;;;;;4989514;28;20112;-55
2021/08/29 13:27:50;;;;;;;6.30;2.03;;;;;;;;;;4986194;28;20042;-55
2021/08/29 13:30:20;;;;;;;7.00;2.00;;;;;;;;;;4989195;28;20056;-54
2021/08/29 13:32:47;;;;;;;8.02;2.20;;;;;;;;;;4985995;28;20058;-54
2021/08/29 13:35:15;;;;;;;5.72;2.10;;;;;;;;;;4989626;28;20049;-54
2021/08/29 13:37:58;;;;;;;5.05;2.10;;;;;;;;;;4985155;28;20095;-55
2021/08/29 13:40:27;;;;;;;7.80;2.10;;;;;;;;;;4988984;28;20046;-55
2021/08/29 13:42:55;;;;;;;7.25;2.22;;;;;;;;;;4966718;28;20035;-56
2021/08/29 13:45:22;;;;;;;10.30;2.38;;;;;;;;;;4987495;28;20055;-53
2021/08/29 13:48:01;;;;;;;7.53;1.95;;;;;;;;;;4968541;28;20038;-54
2021/08/29 13:50:28;;;;;;;4.95;2.03;;;;;;;;;;4970838;28;20059;-52
2021/08/29 13:53:01;;;;;;;10.27;2.30;;;;;;;;;;4975136;28;20049;-55
2021/08/29 13:55:30;;;;;;;7.00;2.20;;;;;;;;;;4989855;28;20098;-55
2021/08/29 13:57:59;;;;;;;8.40;2.35;;;;;;;;;;4981785;28;20055;-52
2021/08/29 14:00:26;;;;;;;4.95;2.08;;;;;;;;;;4969171;28;20042;-53
2021/08/29 14:02:56;;;;;;;5.60;2.40;;;;;;;;;;4971977;28;20136;-53
2021/08/29 14:05:22;;;;;;;7.07;2.55;;;;;;;;;;4972985;28;20034;-54
2021/08/29 14:07:49;;;;;;;7.22;2.60;;;;;;;;;;4969265;28;20046;-55
2021/08/29 14:10:15;;;;;;;7.30;2.38;;;;;;;;;;5004528;28;20038;-54
2021/08/29 14:12:43;;;;;;;8.25;2.70;;;;;;;;;;4987734;28;20034;-53
2021/08/29 14:15:10;;;;;;;4.88;1.90;;;;;;;;;;5003742;28;20045;-56
2021/08/29 14:17:36;;;;;;;4.70;1.92;;;;;;;;;;4999292;28;20165;-53
2021/08/29 14:20:03;;;;;;;5.55;2.42;;;;;;;;;;4984324;28;20034;-54
2021/08/29 14:22:30;;;;;;;7.30;2.00;;;;;;;;;;4989643;28;20053;-54
2021/08/29 14:24:57;;;;;;;8.20;2.00;;;;;;;;;;4997656;28;20048;-52
2021/08/29 14:27:23;;;;;;;4.30;1.50;;;;;;;;;;5004576;28;20067;-49
2021/08/29 14:29:54;;;;;;;6.35;1.88;;;;;;;;;;5001561;28;20037;-51
2021/08/29 14:32:20;;;;;;;4.00;1.63;;;;;;;;;;5004508;28;20038;-53
2021/08/29 14:34:47;;;;;;;4.50;1.67;;;;;;;;;;4997084;28;20034;-53
2021/08/29 14:37:13;;;;;;;4.97;1.70;;;;;;;;;;5005406;28;20049;-53
2021/08/29 14:39:46;;;;;;;5.32;1.92;;;;;;;;;;4999430;28;20086;-52
2021/08/29 14:42:12;;;;;;;6.07;1.60;;;;;;;;;;5003280;28;20038;-54
2021/08/29 14:44:38;;;;;;;2.50;1.42;;;;;;;;;;4998059;28;20043;-54
2021/08/29 14:47:06;;;;;;;3.85;1.90;;;;;;;;;;4989085;28;20046;-54
2021/08/29 14:49:36;;;;;;;5.87;1.80;;;;;;;;;;5000624;28;20130;-53